sensor_id;sensor_type;location;lat;lon;timestamp;temperature;humidity
13245;DHT22;6689;53.400;12.486;2024-01-25T00:00:58;8.30;1.00
13245;DHT22;6689;53.400;12.486;2024-01-25T00:03:36;8.20;99.90
13245;DHT22;6689;53.400;12.486;2024-01-25T00:06:04;8.30;1.00
13245;DHT22;6689;53.400;12.486;2024-01-25T00:08:32;8.20;99.90
13245;DHT22;6689;53.400;12.486;2024-01-25T00:11:01;8.40;1.00
13245;DHT22;6689;53.400;12.486;2024-01-25T00:13:28;8.20;99.90
13245;DHT22;6689;53.400;12.486;2024-01-25T00:15:55;8.20;1.00
13245;DHT22;6689;53.400;12.486;2024-01-25T00:18:23;8.30;1.00
13245;DHT22;6689;53.400;12.486;2024-01-25T00:20:50;8.40;1.00
13245;DHT22;6689;53.400;12.486;2024-01-25T00:23:18;8.30;1.00
13245;DHT22;6689;53.400;12.486;2024-01-25T00:25:47;8.30;1.00
13245;DHT22;6689;53.400;12.486;2024-01-25T00:28:14;8.10;1.00
13245;DHT22;6689;53.400;12.486;2024-01-25T00:30:41;8.20;1.00
13245;DHT22;6689;53.400;12.486;2024-01-25T00:33:09;8.20;1.00
13245;DHT22;6689;53.400;12.486;2024-01-25T00:35:37;8.20;1.00
13245;DHT22;6689;53.400;12.486;2024-01-25T00:38:06;8.20;1.00
13245;DHT22;6689;53.400;12.486;2024-01-25T00:40:34;8.00;1.00
13245;DHT22;6689;53.400;12.486;2024-01-25T00:43:05;8.20;1.00
13245;DHT22;6689;53.400;12.486;2024-01-25T00:45:33;8.20;1.00
13245;DHT22;6689;53.400;12.486;2024-01-25T00:48:00;8.20;1.00
13245;DHT22;6689;53.400;12.486;2024-01-25T00:50:28;8.20;1.00
13245;DHT22;6689;53.400;12.486;2024-01-25T00:52:56;8.20;1.00
13245;DHT22;6689;53.400;12.486;2024-01-25T00:55:24;8.30;1.00
13245;DHT22;6689;53.400;12.486;2024-01-25T00:57:52;8.20;1.00
13245;DHT22;6689;53.400;12.486;2024-01-25T01:00:23;8.20;1.00
13245;DHT22;6689;53.400;12.486;2024-01-25T01:02:52;8.20;1.00
13245;DHT22;6689;53.400;12.486;2024-01-25T01:05:23;8.20;1.00
13245;DHT22;6689;53.400;12.486;2024-01-25T01:07:52;8.10;1.00
13245;DHT22;6689;53.400;12.486;2024-01-25T01:10:20;8.10;1.00
13245;DHT22;6689;53.400;12.486;2024-01-25T01:12:47;8.10;1.00
13245;DHT22;6689;53.400;12.486;2024-01-25T01:15:15;8.20;1.00
13245;DHT22;6689;53.400;12.486;2024-01-25T01:17:44;8.00;1.00
13245;DHT22;6689;53.400;12.486;2024-01-25T01:20:12;8.00;1.00
13245;DHT22;6689;53.400;12.486;2024-01-25T01:22:39;8.10;1.00
13245;DHT22;6689;53.400;12.486;2024-01-25T01:25:09;8.00;1.00
13245;DHT22;6689;53.400;12.486;2024-01-25T01:27:37;8.00;1.00
13245;DHT22;6689;53.400;12.486;2024-01-25T01:30:05;8.00;1.00
13245;DHT22;6689;53.400;12.486;2024-01-25T01:32:35;8.10;1.00
13245;DHT22;6689;53.400;12.486;2024-01-25T01:35:05;8.00;1.00
13245;DHT22;6689;53.400;12.486;2024-01-25T01:37:32;7.90;1.00
13245;DHT22;6689;53.400;12.486;2024-01-25T01:39:59;7.80;1.00
13245;DHT22;6689;53.400;12.486;2024-01-25T01:42:27;8.00;1.00
13245;DHT22;6689;53.400;12.486;2024-01-25T01:44:54;8.00;1.00
13245;DHT22;6689;53.400;12.486;2024-01-25T01:47:22;8.00;1.00
13245;DHT22;6689;53.400;12.486;2024-01-25T01:49:50;8.00;1.00
13245;DHT22;6689;53.400;12.486;2024-01-25T01:52:19;8.00;1.00
13245;DHT22;6689;53.400;12.486;2024-01-25T01:54:46;8.00;1.00
13245;DHT22;6689;53.400;12.486;2024-01-25T01:57:15;8.00;1.00
13245;DHT22;6689;53.400;12.486;2024-01-25T01:59:43;8.00;1.00
13245;DHT22;6689;53.400;12.486;2024-01-25T02:02:12;8.00;1.00
13245;DHT22;6689;53.400;12.486;2024-01-25T02:04:40;8.10;1.00
13245;DHT22;6689;53.400;12.486;2024-01-25T02:07:08;8.00;1.00
13245;DHT22;6689;53.400;12.486;2024-01-25T02:09:37;8.00;1.00
13245;DHT22;6689;53.400;12.486;2024-01-25T02:12:05;8.00;1.00
13245;DHT22;6689;53.400;12.486;2024-01-25T02:14:34;8.00;1.00
13245;DHT22;6689;53.400;12.486;2024-01-25T02:17:02;8.00;1.00
13245;DHT22;6689;53.400;12.486;2024-01-25T02:19:29;8.00;1.00
13245;DHT22;6689;53.400;12.486;2024-01-25T02:21:57;8.10;1.00
13245;DHT22;6689;53.400;12.486;2024-01-25T02:24:27;8.20;1.00
13245;DHT22;6689;53.400;12.486;2024-01-25T02:26:54;8.20;1.00
13245;DHT22;6689;53.400;12.486;2024-01-25T02:29:21;8.10;1.00
13245;DHT22;6689;53.400;12.486;2024-01-25T02:31:50;8.20;1.00
13245;DHT22;6689;53.400;12.486;2024-01-25T02:34:17;8.20;1.00
13245;DHT22;6689;53.400;12.486;2024-01-25T02:36:48;8.00;1.00
13245;DHT22;6689;53.400;12.486;2024-01-25T02:39:16;8.00;1.00
13245;DHT22;6689;53.400;12.486;2024-01-25T02:41:45;8.00;1.00
13245;DHT22;6689;53.400;12.486;2024-01-25T02:44:13;7.90;1.00
13245;DHT22;6689;53.400;12.486;2024-01-25T02:46:40;7.90;1.00
13245;DHT22;6689;53.400;12.486;2024-01-25T02:49:08;8.00;1.00
13245;DHT22;6689;53.400;12.486;2024-01-25T02:51:37;8.00;1.00
13245;DHT22;6689;53.400;12.486;2024-01-25T02:54:06;8.00;1.00
13245;DHT22;6689;53.400;12.486;2024-01-25T02:56:33;7.90;1.00
13245;DHT22;6689;53.400;12.486;2024-01-25T02:59:02;7.80;1.00
13245;DHT22;6689;53.400;12.486;2024-01-25T03:01:37;7.90;1.00
13245;DHT22;6689;53.400;12.486;2024-01-25T03:04:05;7.80;1.00
13245;DHT22;6689;53.400;12.486;2024-01-25T03:06:32;7.90;1.00
13245;DHT22;6689;53.400;12.486;2024-01-25T03:09:00;8.00;1.00
13245;DHT22;6689;53.400;12.486;2024-01-25T03:11:30;7.90;1.00
13245;DHT22;6689;53.400;12.486;2024-01-25T03:13:58;7.90;1.00
13245;DHT22;6689;53.400;12.486;2024-01-25T03:16:27;7.90;1.00
13245;DHT22;6689;53.400;12.486;2024-01-25T03:18:54;7.80;1.00
13245;DHT22;6689;53.400;12.486;2024-01-25T03:21:22;7.80;1.00
13245;DHT22;6689;53.400;12.486;2024-01-25T03:23:51;7.90;1.00
13245;DHT22;6689;53.400;12.486;2024-01-25T03:26:18;7.80;1.00
13245;DHT22;6689;53.400;12.486;2024-01-25T03:28:45;7.80;1.00
13245;DHT22;6689;53.400;12.486;2024-01-25T03:31:36;7.80;1.00
13245;DHT22;6689;53.400;12.486;2024-01-25T03:34:04;7.70;1.00
13245;DHT22;6689;53.400;12.486;2024-01-25T03:36:32;7.80;1.00
13245;DHT22;6689;53.400;12.486;2024-01-25T03:39:01;7.60;1.00
13245;DHT22;6689;53.400;12.486;2024-01-25T03:41:29;7.60;1.00
13245;DHT22;6689;53.400;12.486;2024-01-25T03:43:56;7.80;1.00
13245;DHT22;6689;53.400;12.486;2024-01-25T03:46:23;7.80;1.00
13245;DHT22;6689;53.400;12.486;2024-01-25T03:48:52;7.90;1.00
13245;DHT22;6689;53.400;12.486;2024-01-25T03:51:20;7.80;1.00
13245;DHT22;6689;53.400;12.486;2024-01-25T03:53:49;7.80;1.00
13245;DHT22;6689;53.400;12.486;2024-01-25T03:56:19;7.80;1.00
13245;DHT22;6689;53.400;12.486;2024-01-25T03:58:46;7.80;1.00
13245;DHT22;6689;53.400;12.486;2024-01-25T04:01:14;7.80;1.00
13245;DHT22;6689;53.400;12.486;2024-01-25T04:03:41;7.80;1.00
13245;DHT22;6689;53.400;12.486;2024-01-25T04:06:11;7.90;1.00
13245;DHT22;6689;53.400;12.486;2024-01-25T04:08:38;7.80;1.00
13245;DHT22;6689;53.400;12.486;2024-01-25T04:11:05;7.80;1.00
13245;DHT22;6689;53.400;12.486;2024-01-25T04:13:34;7.90;1.00
13245;DHT22;6689;53.400;12.486;2024-01-25T04:16:02;7.90;1.00
13245;DHT22;6689;53.400;12.486;2024-01-25T04:18:30;7.80;1.00
13245;DHT22;6689;53.400;12.486;2024-01-25T04:20:57;7.70;1.00
13245;DHT22;6689;53.400;12.486;2024-01-25T04:23:26;7.70;1.00
13245;DHT22;6689;53.400;12.486;2024-01-25T04:25:54;7.70;1.00
13245;DHT22;6689;53.400;12.486;2024-01-25T04:28:22;7.60;1.00
13245;DHT22;6689;53.400;12.486;2024-01-25T04:30:50;7.70;1.00
13245;DHT22;6689;53.400;12.486;2024-01-25T04:33:19;7.80;1.00
13245;DHT22;6689;53.400;12.486;2024-01-25T04:35:47;7.70;1.00
13245;DHT22;6689;53.400;12.486;2024-01-25T04:38:15;7.70;1.00
13245;DHT22;6689;53.400;12.486;2024-01-25T04:40:45;7.80;1.00
13245;DHT22;6689;53.400;12.486;2024-01-25T04:43:13;7.80;1.00
13245;DHT22;6689;53.400;12.486;2024-01-25T04:45:40;7.80;1.00
13245;DHT22;6689;53.400;12.486;2024-01-25T04:48:08;7.90;1.00
13245;DHT22;6689;53.400;12.486;2024-01-25T04:50:36;7.80;1.00
13245;DHT22;6689;53.400;12.486;2024-01-25T04:53:05;7.80;1.00
13245;DHT22;6689;53.400;12.486;2024-01-25T04:55:32;7.90;1.00
13245;DHT22;6689;53.400;12.486;2024-01-25T04:58:04;7.80;1.00
13245;DHT22;6689;53.400;12.486;2024-01-25T05:00:32;7.80;1.00
13245;DHT22;6689;53.400;12.486;2024-01-25T05:02:59;7.70;1.00
13245;DHT22;6689;53.400;12.486;2024-01-25T05:05:27;7.80;1.00
13245;DHT22;6689;53.400;12.486;2024-01-25T05:07:54;7.70;1.00
13245;DHT22;6689;53.400;12.486;2024-01-25T05:10:22;7.70;1.00
13245;DHT22;6689;53.400;12.486;2024-01-25T05:12:51;7.60;1.00
13245;DHT22;6689;53.400;12.486;2024-01-25T05:15:20;7.50;1.00
13245;DHT22;6689;53.400;12.486;2024-01-25T05:17:47;7.80;1.00
13245;DHT22;6689;53.400;12.486;2024-01-25T05:20:14;7.70;1.00
13245;DHT22;6689;53.400;12.486;2024-01-25T05:22:43;7.80;99.90
13245;DHT22;6689;53.400;12.486;2024-01-25T05:25:11;7.60;99.90
13245;DHT22;6689;53.400;12.486;2024-01-25T05:27:39;7.60;99.90
13245;DHT22;6689;53.400;12.486;2024-01-25T05:30:08;7.60;99.90
13245;DHT22;6689;53.400;12.486;2024-01-25T05:32:37;7.40;99.90
13245;DHT22;6689;53.400;12.486;2024-01-25T05:35:07;7.60;99.90
13245;DHT22;6689;53.400;12.486;2024-01-25T05:37:35;7.70;99.90
13245;DHT22;6689;53.400;12.486;2024-01-25T05:40:06;7.70;99.90
13245;DHT22;6689;53.400;12.486;2024-01-25T05:42:33;7.70;99.90
13245;DHT22;6689;53.400;12.486;2024-01-25T05:45:00;7.60;99.90
13245;DHT22;6689;53.400;12.486;2024-01-25T05:47:29;7.50;99.90
13245;DHT22;6689;53.400;12.486;2024-01-25T05:50:07;7.60;99.90
13245;DHT22;6689;53.400;12.486;2024-01-25T05:52:35;7.70;99.90
13245;DHT22;6689;53.400;12.486;2024-01-25T05:55:03;7.60;99.90
13245;DHT22;6689;53.400;12.486;2024-01-25T05:57:31;7.70;99.90
13245;DHT22;6689;53.400;12.486;2024-01-25T06:00:00;7.70;99.90
13245;DHT22;6689;53.400;12.486;2024-01-25T06:02:27;7.70;99.90
13245;DHT22;6689;53.400;12.486;2024-01-25T06:04:55;7.80;99.90
13245;DHT22;6689;53.400;12.486;2024-01-25T06:07:25;7.70;99.90
13245;DHT22;6689;53.400;12.486;2024-01-25T06:09:53;7.60;99.90
13245;DHT22;6689;53.400;12.486;2024-01-25T06:12:20;7.60;99.90
13245;DHT22;6689;53.400;12.486;2024-01-25T06:14:47;7.70;99.90
13245;DHT22;6689;53.400;12.486;2024-01-25T06:17:14;7.60;99.90
13245;DHT22;6689;53.400;12.486;2024-01-25T06:19:42;7.70;99.90
13245;DHT22;6689;53.400;12.486;2024-01-25T06:22:09;7.80;99.90
13245;DHT22;6689;53.400;12.486;2024-01-25T06:24:39;7.50;99.90
13245;DHT22;6689;53.400;12.486;2024-01-25T06:27:07;7.60;99.90
13245;DHT22;6689;53.400;12.486;2024-01-25T06:29:34;7.70;99.90
13245;DHT22;6689;53.400;12.486;2024-01-25T06:32:03;7.60;99.90
13245;DHT22;6689;53.400;12.486;2024-01-25T06:34:30;7.50;99.90
13245;DHT22;6689;53.400;12.486;2024-01-25T06:36:59;7.60;99.90
13245;DHT22;6689;53.400;12.486;2024-01-25T06:39:26;7.50;99.90
13245;DHT22;6689;53.400;12.486;2024-01-25T06:41:56;7.50;99.90
13245;DHT22;6689;53.400;12.486;2024-01-25T06:44:23;7.70;99.90
13245;DHT22;6689;53.400;12.486;2024-01-25T06:46:50;7.70;99.90
13245;DHT22;6689;53.400;12.486;2024-01-25T06:49:18;7.60;99.90
13245;DHT22;6689;53.400;12.486;2024-01-25T06:51:46;7.50;99.90
13245;DHT22;6689;53.400;12.486;2024-01-25T06:54:13;7.50;99.90
13245;DHT22;6689;53.400;12.486;2024-01-25T06:56:41;7.50;1.40
13245;DHT22;6689;53.400;12.486;2024-01-25T06:59:11;7.60;99.90
13245;DHT22;6689;53.400;12.486;2024-01-25T07:01:38;7.40;99.90
13245;DHT22;6689;53.400;12.486;2024-01-25T07:04:06;7.50;1.00
13245;DHT22;6689;53.400;12.486;2024-01-25T07:06:33;7.50;1.00
13245;DHT22;6689;53.400;12.486;2024-01-25T07:09:00;7.40;1.00
13245;DHT22;6689;53.400;12.486;2024-01-25T07:11:28;7.40;1.00
13245;DHT22;6689;53.400;12.486;2024-01-25T07:13:56;7.50;1.00
13245;DHT22;6689;53.400;12.486;2024-01-25T07:16:25;7.50;1.00
13245;DHT22;6689;53.400;12.486;2024-01-25T07:18:52;7.50;1.00
13245;DHT22;6689;53.400;12.486;2024-01-25T07:21:21;7.60;1.00
13245;DHT22;6689;53.400;12.486;2024-01-25T07:23:48;7.50;1.00
13245;DHT22;6689;53.400;12.486;2024-01-25T07:26:18;7.40;1.00
13245;DHT22;6689;53.400;12.486;2024-01-25T07:28:46;7.40;1.00
13245;DHT22;6689;53.400;12.486;2024-01-25T07:31:15;7.50;1.00
13245;DHT22;6689;53.400;12.486;2024-01-25T07:33:43;7.50;1.00
13245;DHT22;6689;53.400;12.486;2024-01-25T07:36:11;7.50;1.00
13245;DHT22;6689;53.400;12.486;2024-01-25T07:38:38;7.50;1.00
13245;DHT22;6689;53.400;12.486;2024-01-25T07:41:05;7.50;1.00
13245;DHT22;6689;53.400;12.486;2024-01-25T07:43:33;7.50;1.00
13245;DHT22;6689;53.400;12.486;2024-01-25T07:46:00;7.50;1.00
13245;DHT22;6689;53.400;12.486;2024-01-25T07:48:28;7.60;1.00
13245;DHT22;6689;53.400;12.486;2024-01-25T07:50:57;7.60;1.00
13245;DHT22;6689;53.400;12.486;2024-01-25T07:53:25;7.50;1.00
13245;DHT22;6689;53.400;12.486;2024-01-25T07:55:53;7.70;1.00
13245;DHT22;6689;53.400;12.486;2024-01-25T07:58:20;7.70;1.00
13245;DHT22;6689;53.400;12.486;2024-01-25T08:00:48;7.60;1.00
13245;DHT22;6689;53.400;12.486;2024-01-25T08:03:15;7.60;1.00
13245;DHT22;6689;53.400;12.486;2024-01-25T08:05:44;7.50;1.00
13245;DHT22;6689;53.400;12.486;2024-01-25T08:08:15;7.50;1.00
13245;DHT22;6689;53.400;12.486;2024-01-25T08:10:43;7.60;1.00
13245;DHT22;6689;53.400;12.486;2024-01-25T08:13:12;7.70;1.00
13245;DHT22;6689;53.400;12.486;2024-01-25T08:15:39;7.70;1.00
13245;DHT22;6689;53.400;12.486;2024-01-25T08:18:08;7.70;1.00
13245;DHT22;6689;53.400;12.486;2024-01-25T08:20:37;7.80;1.00
13245;DHT22;6689;53.400;12.486;2024-01-25T08:23:05;7.60;1.00
13245;DHT22;6689;53.400;12.486;2024-01-25T08:25:36;7.70;1.00
13245;DHT22;6689;53.400;12.486;2024-01-25T08:28:04;7.70;1.00
13245;DHT22;6689;53.400;12.486;2024-01-25T08:30:31;7.50;1.00
13245;DHT22;6689;53.400;12.486;2024-01-25T08:33:00;7.70;1.00
13245;DHT22;6689;53.400;12.486;2024-01-25T08:35:27;7.80;1.00
13245;DHT22;6689;53.400;12.486;2024-01-25T08:37:56;7.80;1.00
13245;DHT22;6689;53.400;12.486;2024-01-25T08:40:23;7.80;1.00
13245;DHT22;6689;53.400;12.486;2024-01-25T08:42:53;7.90;1.00
13245;DHT22;6689;53.400;12.486;2024-01-25T08:45:20;7.80;1.00
13245;DHT22;6689;53.400;12.486;2024-01-25T08:47:47;7.70;1.00
13245;DHT22;6689;53.400;12.486;2024-01-25T08:50:15;7.90;1.00
13245;DHT22;6689;53.400;12.486;2024-01-25T08:52:45;7.70;1.00
13245;DHT22;6689;53.400;12.486;2024-01-25T08:55:13;7.90;1.00
13245;DHT22;6689;53.400;12.486;2024-01-25T08:57:41;7.90;1.00
13245;DHT22;6689;53.400;12.486;2024-01-25T09:00:13;7.90;1.00
13245;DHT22;6689;53.400;12.486;2024-01-25T09:02:41;7.70;1.00
13245;DHT22;6689;53.400;12.486;2024-01-25T09:05:09;7.80;1.00
13245;DHT22;6689;53.400;12.486;2024-01-25T09:07:38;7.90;1.00
13245;DHT22;6689;53.400;12.486;2024-01-25T09:10:07;7.90;1.00
13245;DHT22;6689;53.400;12.486;2024-01-25T09:12:35;7.70;1.00
13245;DHT22;6689;53.400;12.486;2024-01-25T09:15:03;7.80;1.00
13245;DHT22;6689;53.400;12.486;2024-01-25T09:17:32;7.70;1.00
13245;DHT22;6689;53.400;12.486;2024-01-25T09:19:59;7.90;1.00
13245;DHT22;6689;53.400;12.486;2024-01-25T09:22:27;7.90;1.00
13245;DHT22;6689;53.400;12.486;2024-01-25T09:24:54;7.90;1.00
13245;DHT22;6689;53.400;12.486;2024-01-25T09:27:21;8.00;1.00
13245;DHT22;6689;53.400;12.486;2024-01-25T09:29:49;7.60;1.00
13245;DHT22;6689;53.400;12.486;2024-01-25T09:32:17;7.90;1.00
13245;DHT22;6689;53.400;12.486;2024-01-25T09:34:47;7.80;1.00
13245;DHT22;6689;53.400;12.486;2024-01-25T09:37:14;8.00;1.00
13245;DHT22;6689;53.400;12.486;2024-01-25T09:39:43;7.90;1.00
13245;DHT22;6689;53.400;12.486;2024-01-25T09:42:10;7.90;1.00
13245;DHT22;6689;53.400;12.486;2024-01-25T09:44:38;7.90;1.00
13245;DHT22;6689;53.400;12.486;2024-01-25T09:47:06;8.00;1.00
13245;DHT22;6689;53.400;12.486;2024-01-25T09:49:34;8.10;1.00
13245;DHT22;6689;53.400;12.486;2024-01-25T09:52:04;8.10;1.00
13245;DHT22;6689;53.400;12.486;2024-01-25T09:54:35;8.10;1.00
13245;DHT22;6689;53.400;12.486;2024-01-25T09:57:08;7.90;1.00
13245;DHT22;6689;53.400;12.486;2024-01-25T09:59:40;7.80;1.00
13245;DHT22;6689;53.400;12.486;2024-01-25T10:02:10;7.90;1.00
13245;DHT22;6689;53.400;12.486;2024-01-25T10:04:40;8.00;1.00
13245;DHT22;6689;53.400;12.486;2024-01-25T10:07:12;8.10;1.00
13245;DHT22;6689;53.400;12.486;2024-01-25T10:09:39;7.80;1.00
13245;DHT22;6689;53.400;12.486;2024-01-25T10:12:07;7.80;1.00
13245;DHT22;6689;53.400;12.486;2024-01-25T10:14:34;7.80;1.00
13245;DHT22;6689;53.400;12.486;2024-01-25T10:17:02;8.00;1.00
13245;DHT22;6689;53.400;12.486;2024-01-25T10:19:30;8.20;1.00
13245;DHT22;6689;53.400;12.486;2024-01-25T10:21:57;7.90;1.00
13245;DHT22;6689;53.400;12.486;2024-01-25T10:24:28;8.10;1.00
13245;DHT22;6689;53.400;12.486;2024-01-25T10:26:55;8.00;1.00
13245;DHT22;6689;53.400;12.486;2024-01-25T10:29:25;8.10;1.00
13245;DHT22;6689;53.400;12.486;2024-01-25T10:31:53;8.10;1.00
13245;DHT22;6689;53.400;12.486;2024-01-25T10:34:20;8.20;1.00
13245;DHT22;6689;53.400;12.486;2024-01-25T10:36:51;8.20;1.00
13245;DHT22;6689;53.400;12.486;2024-01-25T10:39:36;8.10;1.00
13245;DHT22;6689;53.400;12.486;2024-01-25T10:42:04;8.20;1.00
13245;DHT22;6689;53.400;12.486;2024-01-25T10:44:32;8.30;1.00
13245;DHT22;6689;53.400;12.486;2024-01-25T10:46:59;8.10;1.00
13245;DHT22;6689;53.400;12.486;2024-01-25T10:49:28;8.10;1.00
13245;DHT22;6689;53.400;12.486;2024-01-25T10:51:56;8.30;1.00
13245;DHT22;6689;53.400;12.486;2024-01-25T10:54:23;8.30;1.00
13245;DHT22;6689;53.400;12.486;2024-01-25T10:56:52;8.10;1.00
13245;DHT22;6689;53.400;12.486;2024-01-25T10:59:20;8.20;1.00
13245;DHT22;6689;53.400;12.486;2024-01-25T11:01:51;8.20;1.00
13245;DHT22;6689;53.400;12.486;2024-01-25T11:04:21;8.30;1.00
13245;DHT22;6689;53.400;12.486;2024-01-25T11:06:48;8.30;1.00
13245;DHT22;6689;53.400;12.486;2024-01-25T11:09:17;8.30;1.00
13245;DHT22;6689;53.400;12.486;2024-01-25T11:11:46;8.30;1.00
13245;DHT22;6689;53.400;12.486;2024-01-25T11:14:19;8.20;1.00
13245;DHT22;6689;53.400;12.486;2024-01-25T11:16:46;8.20;1.00
13245;DHT22;6689;53.400;12.486;2024-01-25T11:19:17;8.30;1.00
13245;DHT22;6689;53.400;12.486;2024-01-25T11:21:45;8.40;99.90
13245;DHT22;6689;53.400;12.486;2024-01-25T11:24:13;8.40;99.90
13245;DHT22;6689;53.400;12.486;2024-01-25T11:26:42;8.60;99.90
13245;DHT22;6689;53.400;12.486;2024-01-25T11:29:15;8.60;99.90
13245;DHT22;6689;53.400;12.486;2024-01-25T11:31:44;8.60;99.90
13245;DHT22;6689;53.400;12.486;2024-01-25T11:34:12;8.30;99.90
13245;DHT22;6689;53.400;12.486;2024-01-25T11:36:41;8.30;99.90
13245;DHT22;6689;53.400;12.486;2024-01-25T11:39:09;8.40;99.90
13245;DHT22;6689;53.400;12.486;2024-01-25T11:41:38;8.30;99.90
13245;DHT22;6689;53.400;12.486;2024-01-25T11:44:05;8.40;99.90
13245;DHT22;6689;53.400;12.486;2024-01-25T11:46:36;8.50;99.90
13245;DHT22;6689;53.400;12.486;2024-01-25T11:49:05;8.70;99.90
13245;DHT22;6689;53.400;12.486;2024-01-25T11:51:32;8.60;99.90
13245;DHT22;6689;53.400;12.486;2024-01-25T11:54:00;8.70;99.90
13245;DHT22;6689;53.400;12.486;2024-01-25T11:56:29;8.50;99.90
13245;DHT22;6689;53.400;12.486;2024-01-25T11:58:58;8.70;99.90
13245;DHT22;6689;53.400;12.486;2024-01-25T12:01:26;8.50;99.90
13245;DHT22;6689;53.400;12.486;2024-01-25T12:03:54;8.80;99.90
13245;DHT22;6689;53.400;12.486;2024-01-25T12:06:23;8.80;99.90
13245;DHT22;6689;53.400;12.486;2024-01-25T12:08:50;8.80;99.90
13245;DHT22;6689;53.400;12.486;2024-01-25T12:11:18;8.90;99.90
13245;DHT22;6689;53.400;12.486;2024-01-25T12:13:46;8.70;99.90
13245;DHT22;6689;53.400;12.486;2024-01-25T12:16:13;8.80;99.90
13245;DHT22;6689;53.400;12.486;2024-01-25T12:18:42;8.80;99.90
13245;DHT22;6689;53.400;12.486;2024-01-25T12:21:10;8.90;99.90
13245;DHT22;6689;53.400;12.486;2024-01-25T12:23:40;8.80;99.90
13245;DHT22;6689;53.400;12.486;2024-01-25T12:26:09;8.90;99.90
13245;DHT22;6689;53.400;12.486;2024-01-25T12:28:38;8.90;99.90
13245;DHT22;6689;53.400;12.486;2024-01-25T12:31:06;9.00;99.90
13245;DHT22;6689;53.400;12.486;2024-01-25T12:33:36;9.00;99.90
13245;DHT22;6689;53.400;12.486;2024-01-25T12:36:03;9.00;99.90
13245;DHT22;6689;53.400;12.486;2024-01-25T12:38:31;8.90;99.90
13245;DHT22;6689;53.400;12.486;2024-01-25T12:41:01;9.10;99.90
13245;DHT22;6689;53.400;12.486;2024-01-25T12:43:28;8.90;99.90
13245;DHT22;6689;53.400;12.486;2024-01-25T12:45:56;9.20;99.90
13245;DHT22;6689;53.400;12.486;2024-01-25T12:48:23;9.30;99.90
13245;DHT22;6689;53.400;12.486;2024-01-25T12:50:52;9.40;99.90
13245;DHT22;6689;53.400;12.486;2024-01-25T12:53:19;9.40;99.90
13245;DHT22;6689;53.400;12.486;2024-01-25T12:55:47;9.30;99.90
13245;DHT22;6689;53.400;12.486;2024-01-25T12:58:16;9.30;99.90
13245;DHT22;6689;53.400;12.486;2024-01-25T13:00:43;9.40;99.90
13245;DHT22;6689;53.400;12.486;2024-01-25T13:03:11;9.30;99.90
13245;DHT22;6689;53.400;12.486;2024-01-25T13:05:39;9.30;99.90
13245;DHT22;6689;53.400;12.486;2024-01-25T13:08:06;9.30;99.90
13245;DHT22;6689;53.400;12.486;2024-01-25T13:10:36;9.40;99.90
13245;DHT22;6689;53.400;12.486;2024-01-25T13:13:04;9.20;99.90
13245;DHT22;6689;53.400;12.486;2024-01-25T13:15:33;8.90;99.90
13245;DHT22;6689;53.400;12.486;2024-01-25T13:18:01;9.20;99.90
13245;DHT22;6689;53.400;12.486;2024-01-25T13:20:28;9.10;99.90
13245;DHT22;6689;53.400;12.486;2024-01-25T13:22:55;9.20;99.90
13245;DHT22;6689;53.400;12.486;2024-01-25T13:25:23;9.00;99.90
13245;DHT22;6689;53.400;12.486;2024-01-25T13:27:51;8.90;99.90
13245;DHT22;6689;53.400;12.486;2024-01-25T13:30:19;9.00;99.90
13245;DHT22;6689;53.400;12.486;2024-01-25T13:32:47;9.10;99.90
13245;DHT22;6689;53.400;12.486;2024-01-25T13:35:14;9.20;99.90
13245;DHT22;6689;53.400;12.486;2024-01-25T13:37:41;9.20;99.90
13245;DHT22;6689;53.400;12.486;2024-01-25T13:40:12;9.20;99.90
13245;DHT22;6689;53.400;12.486;2024-01-25T13:42:40;9.10;99.90
13245;DHT22;6689;53.400;12.486;2024-01-25T13:45:07;9.00;99.90
13245;DHT22;6689;53.400;12.486;2024-01-25T13:47:35;9.00;99.90
13245;DHT22;6689;53.400;12.486;2024-01-25T13:50:05;8.80;99.90
13245;DHT22;6689;53.400;12.486;2024-01-25T13:52:32;8.90;99.90
13245;DHT22;6689;53.400;12.486;2024-01-25T13:54:59;9.00;99.90
13245;DHT22;6689;53.400;12.486;2024-01-25T13:57:26;9.00;99.90
13245;DHT22;6689;53.400;12.486;2024-01-25T13:59:54;9.10;99.90
13245;DHT22;6689;53.400;12.486;2024-01-25T14:02:22;9.00;99.90
13245;DHT22;6689;53.400;12.486;2024-01-25T14:04:49;9.00;99.90
13245;DHT22;6689;53.400;12.486;2024-01-25T14:07:18;8.60;99.90
13245;DHT22;6689;53.400;12.486;2024-01-25T14:09:46;8.60;99.90
13245;DHT22;6689;53.400;12.486;2024-01-25T14:12:13;8.80;99.90
13245;DHT22;6689;53.400;12.486;2024-01-25T14:14:42;8.60;99.90
13245;DHT22;6689;53.400;12.486;2024-01-25T14:17:09;8.60;99.90
13245;DHT22;6689;53.400;12.486;2024-01-25T14:19:37;8.70;99.90
13245;DHT22;6689;53.400;12.486;2024-01-25T14:22:05;8.80;99.90
13245;DHT22;6689;53.400;12.486;2024-01-25T14:24:34;8.80;99.90
13245;DHT22;6689;53.400;12.486;2024-01-25T14:27:01;8.80;99.90
13245;DHT22;6689;53.400;12.486;2024-01-25T14:29:30;8.80;99.90
13245;DHT22;6689;53.400;12.486;2024-01-25T14:31:59;8.80;99.90
13245;DHT22;6689;53.400;12.486;2024-01-25T14:34:26;8.60;99.90
13245;DHT22;6689;53.400;12.486;2024-01-25T14:36:53;8.50;99.90
13245;DHT22;6689;53.400;12.486;2024-01-25T14:39:22;8.60;99.90
13245;DHT22;6689;53.400;12.486;2024-01-25T14:41:53;8.50;99.90
13245;DHT22;6689;53.400;12.486;2024-01-25T14:44:21;8.70;99.90
13245;DHT22;6689;53.400;12.486;2024-01-25T14:46:48;8.60;99.90
13245;DHT22;6689;53.400;12.486;2024-01-25T14:49:15;8.50;99.90
13245;DHT22;6689;53.400;12.486;2024-01-25T14:51:44;8.60;99.90
13245;DHT22;6689;53.400;12.486;2024-01-25T14:54:13;8.40;99.90
13245;DHT22;6689;53.400;12.486;2024-01-25T14:56:40;8.60;99.90
13245;DHT22;6689;53.400;12.486;2024-01-25T14:59:09;8.40;99.90
13245;DHT22;6689;53.400;12.486;2024-01-25T15:01:37;8.50;99.90
13245;DHT22;6689;53.400;12.486;2024-01-25T15:04:04;8.40;99.90
13245;DHT22;6689;53.400;12.486;2024-01-25T15:06:35;8.40;99.90
13245;DHT22;6689;53.400;12.486;2024-01-25T15:09:03;8.50;99.90
13245;DHT22;6689;53.400;12.486;2024-01-25T15:11:30;8.20;99.90
13245;DHT22;6689;53.400;12.486;2024-01-25T15:13:57;8.40;99.90
13245;DHT22;6689;53.400;12.486;2024-01-25T15:16:28;8.30;99.90
13245;DHT22;6689;53.400;12.486;2024-01-25T15:18:56;8.30;99.90
13245;DHT22;6689;53.400;12.486;2024-01-25T15:21:24;8.20;99.90
13245;DHT22;6689;53.400;12.486;2024-01-25T15:23:52;8.20;99.90
13245;DHT22;6689;53.400;12.486;2024-01-25T15:26:20;8.10;99.90
13245;DHT22;6689;53.400;12.486;2024-01-25T15:28:48;8.10;99.90
13245;DHT22;6689;53.400;12.486;2024-01-25T15:31:16;7.90;99.90
13245;DHT22;6689;53.400;12.486;2024-01-25T15:33:45;8.10;99.90
13245;DHT22;6689;53.400;12.486;2024-01-25T15:36:14;8.10;99.90
13245;DHT22;6689;53.400;12.486;2024-01-25T15:38:43;8.20;99.90
13245;DHT22;6689;53.400;12.486;2024-01-25T15:41:12;8.10;99.90
13245;DHT22;6689;53.400;12.486;2024-01-25T15:43:40;8.10;99.90
13245;DHT22;6689;53.400;12.486;2024-01-25T15:46:07;8.00;99.90
13245;DHT22;6689;53.400;12.486;2024-01-25T15:48:35;8.20;99.90
13245;DHT22;6689;53.400;12.486;2024-01-25T15:51:04;8.20;99.90
13245;DHT22;6689;53.400;12.486;2024-01-25T15:53:31;8.20;99.90
13245;DHT22;6689;53.400;12.486;2024-01-25T15:55:59;8.30;99.90
13245;DHT22;6689;53.400;12.486;2024-01-25T15:58:28;7.90;99.90
13245;DHT22;6689;53.400;12.486;2024-01-25T16:00:55;8.10;99.90